Three Mile, North Carolina
Current Conditions -  °F | °C
As of 2:35 PM on Tuesday 21 Oct 2014 (Local Time) from KTNB Reporting Station
Scattered Clouds Scattered Clouds  
Wind Chill: 54°   Ceiling: Unl
Heat Index: 54°   Visibility: 10mi
Dew Point: 38°   Wind: 14mph
Humidity: 56%   Direction: 300°WNW
Pressure: 29.95"   Gusts: 23mph
Location:  36.0227°N, 81.9499°W
Report Text: KTNB 211835Z AUTO 30012G20KT 10SM SCT050 12/04 A2995 RMK AO2 T01220036
Loading
Personal Weather Stations






























Interactive Weather Map New forecast layout! Learn more

10-Day Weather Forecast

Advertisements
Track Severe Weather on mobile